createdAt,value
2022-09-20T00:01:50.777Z,100.00
2022-09-20T00:04:18.331Z,100.00
2022-09-20T00:06:45.894Z,100.00
2022-09-20T00:09:13.429Z,100.00
2022-09-20T00:11:41.016Z,100.00
2022-09-20T00:14:09.296Z,100.00
2022-09-20T00:16:40.789Z,100.00
2022-09-20T00:19:09.641Z,100.00
2022-09-20T00:21:37.734Z,100.00
2022-09-20T00:24:06.167Z,100.00
2022-09-20T00:26:34.199Z,100.00
2022-09-20T00:29:01.813Z,100.00
2022-09-20T00:31:29.482Z,100.00
2022-09-20T00:34:16.971Z,100.00
2022-09-20T00:36:45.296Z,100.00
2022-09-20T00:39:14.871Z,100.00
2022-09-20T00:41:43.016Z,100.00
2022-09-20T00:44:42.922Z,100.00
2022-09-20T00:47:16.955Z,100.00
2022-09-20T00:49:46.503Z,100.00
2022-09-20T00:52:14.356Z,100.00
2022-09-20T00:54:42.251Z,100.00
2022-09-20T00:57:09.791Z,100.00
2022-09-20T00:59:41.200Z,100.00
2022-09-20T01:02:13.264Z,100.00
2022-09-20T01:04:42.078Z,100.00
2022-09-20T01:07:13.435Z,100.00
2022-09-20T01:09:41.052Z,100.00
2022-09-20T01:12:14.922Z,100.00
2022-09-20T01:14:45.081Z,100.00
2022-09-20T01:17:14.767Z,100.00
2022-09-20T01:19:54.872Z,100.00
2022-09-20T01:22:27.710Z,100.00
2022-09-20T01:25:03.658Z,100.00
2022-09-20T01:27:51.684Z,100.00
2022-09-20T01:30:21.085Z,100.00
2022-09-20T01:32:59.758Z,100.00
2022-09-20T01:35:30.061Z,100.00
2022-09-20T01:38:13.151Z,100.00
2022-09-20T01:40:49.486Z,100.00
2022-09-20T01:43:27.122Z,100.00
2022-09-20T01:45:54.879Z,100.00
2022-09-20T01:48:30.038Z,100.00
2022-09-20T01:51:21.384Z,100.00
2022-09-20T01:54:21.801Z,100.00
2022-09-20T01:57:32.708Z,100.00
2022-09-20T02:00:17.564Z,100.00
2022-09-20T02:03:36.576Z,100.00
2022-09-20T02:06:19.217Z,100.00
2022-09-20T02:09:11.686Z,100.00
2022-09-20T02:11:51.072Z,100.00
2022-09-20T02:14:33.221Z,100.00
2022-09-20T02:17:09.263Z,100.00
2022-09-20T02:19:52.743Z,100.00
2022-09-20T02:22:49.801Z,100.00
2022-09-20T02:25:56.604Z,100.00
2022-09-20T02:28:33.115Z,100.00
2022-09-20T02:31:13.754Z,100.00
2022-09-20T02:33:58.038Z,100.00
2022-09-20T02:36:37.298Z,100.00
2022-09-20T02:39:11.840Z,100.00
2022-09-20T02:41:56.517Z,100.00
2022-09-20T02:44:44.874Z,100.00
2022-09-20T02:47:22.472Z,100.00
2022-09-20T02:50:09.963Z,100.00
2022-09-20T02:52:45.079Z,100.00
2022-09-20T02:55:18.782Z,100.00
2022-09-20T02:57:53.960Z,100.00
2022-09-20T03:00:25.153Z,100.00
2022-09-20T03:03:07.275Z,100.00
2022-09-20T03:05:50.726Z,100.00
2022-09-20T03:08:32.975Z,100.00
2022-09-20T03:11:07.410Z,100.00
2022-09-20T03:13:55.423Z,100.00
2022-09-20T03:16:32.993Z,100.00
2022-09-20T03:19:14.334Z,100.00
2022-09-20T03:21:53.608Z,100.00
2022-09-20T03:24:35.990Z,100.00
2022-09-20T03:27:09.489Z,100.00
2022-09-20T03:29:49.957Z,100.00
2022-09-20T03:32:33.224Z,100.00
2022-09-20T03:35:14.140Z,100.00
2022-09-20T03:38:03.075Z,100.00
2022-09-20T03:40:51.527Z,100.00
2022-09-20T03:43:35.344Z,100.00
2022-09-20T03:46:16.896Z,100.00
2022-09-20T03:49:06.531Z,100.00
2022-09-20T03:51:45.987Z,100.00
2022-09-20T03:54:35.727Z,100.00
2022-09-20T03:57:41.796Z,100.00
2022-09-20T04:00:21.820Z,100.00
2022-09-20T04:03:20.032Z,100.00
2022-09-20T04:06:00.295Z,100.00
2022-09-20T04:08:51.475Z,100.00
2022-09-20T04:11:26.988Z,100.00
2022-09-20T04:14:00.150Z,100.00
2022-09-20T04:16:38.767Z,100.00
2022-09-20T04:19:16.172Z,100.00
2022-09-20T04:21:49.970Z,100.00
2022-09-20T04:24:24.824Z,100.00
2022-09-20T04:26:59.653Z,100.00
2022-09-20T04:29:36.056Z,100.00
2022-09-20T04:32:14.775Z,100.00
2022-09-20T04:35:05.080Z,100.00
2022-09-20T04:37:34.371Z,100.00
2022-09-20T04:40:14.978Z,100.00
2022-09-20T04:43:12.397Z,100.00
2022-09-20T04:46:18.712Z,100.00
2022-09-20T04:49:20.430Z,100.00
2022-09-20T04:52:34.338Z,100.00
2022-09-20T04:55:25.769Z,100.00
2022-09-20T04:58:28.064Z,100.00
2022-09-20T05:01:31.613Z,100.00
2022-09-20T05:04:22.639Z,100.00
2022-09-20T05:07:18.313Z,100.00
2022-09-20T05:10:03.716Z,100.00
2022-09-20T05:12:49.120Z,100.00
2022-09-20T05:15:39.000Z,100.00
2022-09-20T05:18:44.761Z,100.00
2022-09-20T05:21:35.308Z,100.00
2022-09-20T05:24:19.155Z,100.00
2022-09-20T05:27:01.198Z,100.00
2022-09-20T05:29:35.081Z,100.00
2022-09-20T05:32:11.037Z,100.00
2022-09-20T05:34:47.160Z,100.00
2022-09-20T05:37:25.266Z,100.00
2022-09-20T05:40:02.603Z,100.00
2022-09-20T05:42:40.631Z,100.00
2022-09-20T05:45:23.479Z,100.00
2022-09-20T05:47:58.971Z,100.00
2022-09-20T05:50:40.147Z,100.00
2022-09-20T05:53:30.558Z,100.00
2022-09-20T05:56:09.943Z,100.00
2022-09-20T05:58:58.030Z,100.00
2022-09-20T06:01:31.135Z,100.00
2022-09-20T06:04:13.619Z,100.00
2022-09-20T06:06:57.246Z,100.00
2022-09-20T06:09:52.297Z,100.00
2022-09-20T06:12:35.683Z,100.00
2022-09-20T06:15:19.583Z,100.00
2022-09-20T06:17:57.971Z,100.00
2022-09-20T06:20:33.796Z,100.00
2022-09-20T06:23:04.635Z,100.00
2022-09-20T06:25:39.190Z,100.00
2022-09-20T06:28:14.254Z,100.00
2022-09-20T06:30:45.691Z,100.00
2022-09-20T06:33:17.544Z,100.00
2022-09-20T06:35:54.744Z,100.00
2022-09-20T06:38:56.805Z,100.00
2022-09-20T06:41:30.497Z,100.00
2022-09-20T06:44:01.046Z,100.00
2022-09-20T06:46:29.851Z,100.00
2022-09-20T06:48:58.103Z,100.00
2022-09-20T06:51:29.179Z,100.00
2022-09-20T06:53:58.166Z,100.00
2022-09-20T06:56:28.834Z,100.00
2022-09-20T06:58:56.469Z,100.00
2022-09-20T07:01:30.029Z,100.00
2022-09-20T07:03:58.059Z,100.00
2022-09-20T07:06:27.255Z,100.00
2022-09-20T07:08:54.846Z,100.00
2022-09-20T07:11:23.346Z,100.00
2022-09-20T07:13:53.757Z,100.00
2022-09-20T07:16:21.975Z,100.00
2022-09-20T07:18:52.211Z,100.00
2022-09-20T07:21:21.491Z,100.00
2022-09-20T07:23:51.116Z,100.00
2022-09-20T07:26:21.275Z,100.00
2022-09-20T07:28:50.250Z,100.00
2022-09-20T07:31:18.942Z,100.00
2022-09-20T07:33:46.625Z,100.00
2022-09-20T07:36:14.383Z,100.00
2022-09-20T07:38:43.131Z,100.00
2022-09-20T07:41:12.022Z,100.00
2022-09-20T07:43:39.729Z,100.00
2022-09-20T07:46:07.360Z,100.00
2022-09-20T07:48:36.714Z,100.00
2022-09-20T07:51:08.943Z,100.00
2022-09-20T07:53:37.192Z,100.00
2022-09-20T07:56:06.884Z,100.00
2022-09-20T07:58:36.965Z,100.00
2022-09-20T08:01:07.134Z,100.00
2022-09-20T08:03:35.859Z,100.00
2022-09-20T08:06:05.757Z,100.00
2022-09-20T08:08:33.969Z,100.00
2022-09-20T08:11:06.711Z,100.00
2022-09-20T08:16:26.829Z,100.00
2022-09-20T08:18:57.070Z,100.00
2022-09-20T08:21:25.822Z,100.00
2022-09-20T08:23:53.771Z,100.00
2022-09-20T08:26:24.588Z,100.00
2022-09-20T08:28:55.423Z,100.00
2022-09-20T08:31:24.603Z,100.00
2022-09-20T08:33:54.367Z,100.00
2022-09-20T08:36:24.347Z,100.00
2022-09-20T08:41:44.755Z,100.00
2022-09-20T08:44:18.218Z,98.91
2022-09-20T08:46:50.879Z,96.97
2022-09-20T08:49:26.693Z,94.72
2022-09-20T08:51:57.911Z,93.36
2022-09-20T08:54:32.160Z,93.21
2022-09-20T08:57:05.142Z,93.94
2022-09-20T08:59:34.745Z,93.98
2022-09-20T09:02:02.347Z,92.14
2022-09-20T09:04:36.215Z,91.69
2022-09-20T09:07:04.255Z,91.64
2022-09-20T09:09:37.544Z,91.91
2022-09-20T09:12:06.860Z,90.95
2022-09-20T09:14:59.296Z,90.73
2022-09-20T09:17:29.201Z,90.76
2022-09-20T09:19:57.870Z,87.84
2022-09-20T09:22:32.147Z,86.29
2022-09-20T09:25:32.154Z,87.30
2022-09-20T09:28:01.861Z,88.10
2022-09-20T09:30:32.807Z,87.60
2022-09-20T09:33:18.279Z,86.67
2022-09-20T09:35:53.976Z,85.78
2022-09-20T09:38:24.604Z,85.26
2022-09-20T09:40:53.770Z,84.53
2022-09-20T09:43:26.969Z,83.21
2022-09-20T09:45:57.144Z,83.74
2022-09-20T09:48:27.575Z,84.01
2022-09-20T09:51:10.680Z,83.91
2022-09-20T09:53:40.143Z,83.29
2022-09-20T09:56:26.850Z,83.34
2022-09-20T09:59:19.771Z,82.22
2022-09-20T10:01:58.057Z,83.54
2022-09-20T10:04:34.145Z,84.26
2022-09-20T10:07:10.517Z,85.01
2022-09-20T10:09:56.575Z,83.46
2022-09-20T10:12:38.559Z,82.42
2022-09-20T10:15:22.980Z,81.64
2022-09-20T10:18:02.851Z,81.73
2022-09-20T10:20:42.683Z,80.71
2022-09-20T10:24:02.138Z,76.90
2022-09-20T10:26:25.484Z,79.28
2022-09-20T10:29:03.997Z,81.36
2022-09-20T10:31:42.488Z,81.38
2022-09-20T10:34:43.508Z,80.65
2022-09-20T10:37:21.493Z,80.36
2022-09-20T10:40:00.269Z,80.43
2022-09-20T10:42:56.503Z,80.54
2022-09-20T10:46:03.832Z,79.21
2022-09-20T10:48:29.324Z,79.74
2022-09-20T10:51:05.026Z,79.09
2022-09-20T10:53:43.231Z,79.56
2022-09-20T10:56:24.218Z,79.64
2022-09-20T10:59:30.241Z,79.68
2022-09-20T11:02:14.856Z,80.25
2022-09-20T11:05:04.715Z,80.42
2022-09-20T11:07:46.834Z,80.04
2022-09-20T11:10:17.551Z,78.66
2022-09-20T11:12:51.904Z,78.54
2022-09-20T11:15:25.371Z,76.47
2022-09-20T11:18:02.511Z,73.58
2022-09-20T11:20:35.323Z,72.92
2022-09-20T11:23:11.285Z,73.86
2022-09-20T11:25:44.395Z,75.80
2022-09-20T11:28:18.557Z,75.67
2022-09-20T11:30:57.048Z,74.56
2022-09-20T11:33:29.715Z,74.07
2022-09-20T11:36:01.595Z,74.03
2022-09-20T11:38:34.225Z,74.01
2022-09-20T11:41:06.019Z,72.61
2022-09-20T11:43:35.662Z,72.01
2022-09-20T11:46:08.653Z,72.61
2022-09-20T11:48:43.708Z,72.90
2022-09-20T11:51:31.312Z,72.10
2022-09-20T11:54:21.343Z,69.14
2022-09-20T11:56:52.242Z,68.16
2022-09-20T11:59:34.284Z,69.16
2022-09-20T12:02:04.495Z,69.16
2022-09-20T12:04:36.866Z,67.64
2022-09-20T12:07:11.521Z,67.46
2022-09-20T12:09:45.376Z,67.75
2022-09-20T12:12:21.206Z,67.53
2022-09-20T12:14:55.888Z,65.81
2022-09-20T12:18:09.067Z,65.57
2022-09-20T12:21:04.144Z,62.10
2022-09-20T12:23:59.402Z,63.96
2022-09-20T12:26:41.007Z,65.13
2022-09-20T12:29:54.104Z,65.79
2022-09-20T12:32:56.368Z,62.94
2022-09-20T12:36:17.738Z,63.37
2022-09-20T12:39:06.344Z,62.95
2022-09-20T12:41:51.443Z,64.15
2022-09-20T12:44:32.952Z,64.22
2022-09-20T12:47:02.902Z,63.63
2022-09-20T12:50:09.162Z,63.23
2022-09-20T12:53:00.506Z,63.99
2022-09-20T12:55:52.760Z,64.04
2022-09-20T12:58:24.193Z,64.40
2022-09-20T13:01:14.573Z,65.64
2022-09-20T13:03:45.078Z,66.99
2022-09-20T13:06:26.627Z,67.00
2022-09-20T13:09:03.652Z,66.11
2022-09-20T13:11:37.302Z,67.02
2022-09-20T13:14:11.661Z,66.80
2022-09-20T13:16:48.378Z,66.95
2022-09-20T13:19:19.293Z,68.26
2022-09-20T13:21:54.915Z,67.67
2022-09-20T13:24:25.770Z,68.04
2022-09-20T13:26:56.748Z,68.50
2022-09-20T13:29:30.033Z,67.67
2022-09-20T13:31:58.348Z,67.31
2022-09-20T13:34:27.454Z,66.71
2022-09-20T13:36:59.376Z,66.35
2022-09-20T13:39:32.470Z,66.47
2022-09-20T13:42:03.049Z,64.36
2022-09-20T13:44:34.284Z,64.39
2022-09-20T13:47:02.335Z,65.03
2022-09-20T13:49:33.438Z,64.56
2022-09-20T13:52:21.227Z,64.73
2022-09-20T13:54:48.849Z,64.39
2022-09-20T13:57:22.482Z,64.57
2022-09-20T13:59:52.508Z,63.13
2022-09-20T14:02:24.106Z,63.67
2022-09-20T14:04:56.674Z,63.12
2022-09-20T14:07:27.970Z,63.51
2022-09-20T14:09:56.568Z,64.55
2022-09-20T14:12:25.989Z,64.58
2022-09-20T14:14:54.747Z,64.26
2022-09-20T14:17:25.086Z,63.47
2022-09-20T14:19:56.519Z,61.55
2022-09-20T14:22:27.041Z,60.82
2022-09-20T14:25:02.742Z,61.05
2022-09-20T14:27:31.364Z,59.74
2022-09-20T14:29:59.801Z,61.24
2022-09-20T14:32:48.205Z,62.43
2022-09-20T14:35:20.243Z,64.15
2022-09-20T14:37:50.393Z,65.47
2022-09-20T14:40:22.788Z,65.77
2022-09-20T14:42:54.317Z,66.86
2022-09-20T14:45:25.529Z,67.01
2022-09-20T14:47:57.594Z,66.68
2022-09-20T14:50:30.032Z,66.69
2022-09-20T14:53:03.266Z,67.07
2022-09-20T14:55:37.120Z,67.39
2022-09-20T14:58:10.486Z,68.60
2022-09-20T15:00:50.405Z,69.80
2022-09-20T15:03:25.505Z,71.05
2022-09-20T15:05:54.979Z,71.33
2022-09-20T15:08:23.264Z,72.18
2022-09-20T15:10:51.476Z,73.29
2022-09-20T15:13:19.272Z,74.48
2022-09-20T15:15:50.988Z,75.74
2022-09-20T15:18:22.946Z,76.24
2022-09-20T15:20:51.302Z,77.64
2022-09-20T15:23:20.456Z,78.05
2022-09-20T15:25:51.311Z,78.84
2022-09-20T15:28:19.570Z,79.59
2022-09-20T15:30:48.192Z,79.42
2022-09-20T15:33:15.899Z,79.26
2022-09-20T15:35:44.768Z,79.20
2022-09-20T15:38:13.095Z,78.84
2022-09-20T15:40:42.951Z,78.83
2022-09-20T15:43:16.183Z,78.71
2022-09-20T15:45:50.417Z,78.58
2022-09-20T15:48:20.733Z,79.00
2022-09-20T15:51:02.141Z,78.74
2022-09-20T15:53:33.405Z,78.58
2022-09-20T15:56:03.908Z,78.78
2022-09-20T15:58:36.307Z,79.12
2022-09-20T16:01:06.364Z,79.58
2022-09-20T16:03:35.187Z,79.47
2022-09-20T16:06:04.973Z,79.75
2022-09-20T16:08:33.722Z,80.06
2022-09-20T16:11:03.646Z,80.76
2022-09-20T16:13:31.376Z,80.68
2022-09-20T16:16:00.756Z,81.14
2022-09-20T16:18:46.680Z,81.08
2022-09-20T16:21:16.151Z,81.16
2022-09-20T16:23:48.543Z,81.04
2022-09-20T16:26:17.962Z,80.83
2022-09-20T16:28:47.715Z,81.44
2022-09-20T16:31:39.811Z,81.29
2022-09-20T16:34:12.651Z,81.25
2022-09-20T16:36:42.256Z,80.99
2022-09-20T16:39:10.452Z,80.89
2022-09-20T16:41:40.504Z,80.99
2022-09-20T16:44:08.743Z,81.15
2022-09-20T16:46:37.263Z,81.27
2022-09-20T16:49:07.289Z,81.45
2022-09-20T16:51:37.659Z,81.96
2022-09-20T16:54:07.355Z,82.18
2022-09-20T16:56:36.281Z,82.67
2022-09-20T16:59:07.320Z,82.65
2022-09-20T17:01:36.762Z,82.72
2022-09-20T17:04:05.648Z,83.22
2022-09-20T17:06:35.172Z,83.22
2022-09-20T17:09:03.752Z,83.86
2022-09-20T17:11:35.829Z,84.52
2022-09-20T17:14:06.367Z,85.15
2022-09-20T17:16:36.319Z,85.79
2022-09-20T17:19:07.174Z,86.46
2022-09-20T17:21:36.904Z,86.96
2022-09-20T17:24:06.794Z,87.47
2022-09-20T17:26:37.478Z,87.70
2022-09-20T17:29:09.860Z,88.46
2022-09-20T17:31:39.054Z,88.44
2022-09-20T17:34:08.460Z,88.91
2022-09-20T17:36:39.130Z,89.02
2022-09-20T17:39:09.924Z,89.22
2022-09-20T17:41:38.354Z,90.20
2022-09-20T17:44:09.887Z,90.27
2022-09-20T17:46:39.365Z,90.75
2022-09-20T17:49:08.601Z,91.18
2022-09-20T17:51:38.032Z,91.64
2022-09-20T17:54:06.194Z,91.72
2022-09-20T17:56:35.384Z,92.19
2022-09-20T17:59:04.434Z,92.73
2022-09-20T18:01:35.532Z,93.14
2022-09-20T18:04:04.270Z,93.35
2022-09-20T18:06:35.262Z,93.80
2022-09-20T18:09:05.657Z,93.73
2022-09-20T18:11:35.666Z,93.79
2022-09-20T18:14:04.743Z,94.16
2022-09-20T18:16:35.028Z,94.50
2022-09-20T18:19:03.055Z,94.41
2022-09-20T18:21:33.388Z,95.29
2022-09-20T18:24:00.942Z,95.84
2022-09-20T18:26:30.280Z,96.14
2022-09-20T18:29:00.149Z,96.34
2022-09-20T18:31:32.128Z,96.52
2022-09-20T18:34:01.602Z,96.72
2022-09-20T18:36:30.808Z,96.82
2022-09-20T18:38:59.309Z,97.01
2022-09-20T18:41:28.848Z,97.15
2022-09-20T18:43:57.020Z,97.39
2022-09-20T18:46:26.956Z,97.61
2022-09-20T18:48:56.911Z,97.96
2022-09-20T18:51:28.677Z,98.52
2022-09-20T18:53:56.934Z,98.51
2022-09-20T18:56:26.829Z,98.87
2022-09-20T18:58:56.536Z,99.13
2022-09-20T19:02:09.510Z,99.16
2022-09-20T19:05:11.845Z,99.40
2022-09-20T19:07:52.134Z,99.87
2022-09-20T19:10:27.500Z,100.00
2022-09-20T19:13:00.663Z,100.00
2022-09-20T19:15:47.735Z,100.00
2022-09-20T19:18:33.227Z,100.00
2022-09-20T19:21:09.995Z,100.00
2022-09-20T19:23:51.186Z,100.00
2022-09-20T19:26:22.570Z,100.00
2022-09-20T19:28:51.160Z,100.00
2022-09-20T19:31:24.516Z,100.00
2022-09-20T19:33:54.866Z,100.00
2022-09-20T19:36:23.414Z,100.00
2022-09-20T19:39:02.355Z,100.00
2022-09-20T19:41:41.830Z,100.00
2022-09-20T19:44:32.285Z,100.00
2022-09-20T19:47:18.124Z,100.00
2022-09-20T19:49:54.114Z,100.00
2022-09-20T19:52:22.823Z,100.00
2022-09-20T19:54:52.674Z,100.00
2022-09-20T19:57:22.539Z,100.00
2022-09-20T19:59:51.876Z,100.00
2022-09-20T20:02:19.910Z,100.00
2022-09-20T20:04:47.876Z,100.00
2022-09-20T20:07:27.717Z,100.00
2022-09-20T20:10:04.925Z,100.00
2022-09-20T20:12:40.800Z,100.00
2022-09-20T20:15:21.422Z,100.00
2022-09-20T20:17:58.909Z,100.00
2022-09-20T20:20:34.867Z,100.00
2022-09-20T20:23:32.324Z,100.00
2022-09-20T20:26:06.720Z,100.00
2022-09-20T20:28:34.455Z,100.00
2022-09-20T20:31:03.069Z,100.00
2022-09-20T20:33:31.841Z,100.00
2022-09-20T20:36:01.611Z,100.00
2022-09-20T20:38:37.238Z,100.00
2022-09-20T20:41:08.539Z,100.00
2022-09-20T20:43:37.386Z,100.00
2022-09-20T20:46:07.054Z,100.00
2022-09-20T20:48:36.183Z,100.00
2022-09-20T20:51:05.989Z,100.00
2022-09-20T20:53:35.821Z,100.00
2022-09-20T20:56:07.271Z,100.00
2022-09-20T20:58:36.344Z,100.00
2022-09-20T21:01:12.389Z,100.00
2022-09-20T21:03:41.293Z,100.00
2022-09-20T21:06:10.086Z,100.00
2022-09-20T21:08:39.623Z,100.00
2022-09-20T21:11:11.687Z,100.00
2022-09-20T21:13:39.819Z,100.00
2022-09-20T21:16:09.956Z,100.00
2022-09-20T21:18:38.490Z,100.00
2022-09-20T21:21:14.833Z,100.00
2022-09-20T21:23:43.258Z,100.00
2022-09-20T21:26:15.361Z,100.00
2022-09-20T21:28:44.982Z,100.00
2022-09-20T21:31:14.138Z,100.00
2022-09-20T21:33:43.236Z,100.00
2022-09-20T21:36:13.157Z,100.00
2022-09-20T21:38:41.915Z,100.00
2022-09-20T21:41:12.703Z,100.00
2022-09-20T21:43:42.699Z,100.00
2022-09-20T21:46:14.400Z,100.00
2022-09-20T21:48:42.266Z,100.00
2022-09-20T21:51:11.514Z,100.00
2022-09-20T21:53:40.006Z,100.00
2022-09-20T21:56:09.386Z,100.00
2022-09-20T21:58:39.840Z,100.00
2022-09-20T22:01:09.947Z,100.00
2022-09-20T22:03:39.380Z,100.00
2022-09-20T22:06:12.900Z,100.00
2022-09-20T22:08:42.629Z,100.00
2022-09-20T22:11:14.785Z,100.00
2022-09-20T22:13:46.047Z,100.00
2022-09-20T22:16:15.496Z,100.00
2022-09-20T22:18:44.354Z,100.00
2022-09-20T22:21:13.962Z,100.00
2022-09-20T22:23:42.153Z,100.00
2022-09-20T22:26:11.542Z,100.00
2022-09-20T22:28:39.520Z,100.00
2022-09-20T22:31:10.524Z,100.00
2022-09-20T22:33:42.574Z,100.00
2022-09-20T22:36:10.471Z,100.00
2022-09-20T22:38:38.216Z,100.00
2022-09-20T22:41:06.044Z,100.00
2022-09-20T22:43:34.847Z,100.00
2022-09-20T22:46:03.309Z,100.00
2022-09-20T22:48:32.975Z,100.00
2022-09-20T22:51:02.011Z,100.00
2022-09-20T22:53:31.077Z,100.00
2022-09-20T22:56:06.806Z,100.00
2022-09-20T22:58:35.906Z,100.00
2022-09-20T23:01:09.437Z,100.00
2022-09-20T23:03:39.759Z,100.00
2022-09-20T23:06:13.198Z,100.00
2022-09-20T23:08:40.968Z,100.00
2022-09-20T23:11:09.173Z,100.00
2022-09-20T23:13:36.857Z,100.00
2022-09-20T23:16:11.941Z,100.00
2022-09-20T23:18:41.148Z,100.00
2022-09-20T23:21:09.298Z,100.00
2022-09-20T23:23:37.414Z,100.00
2022-09-20T23:26:08.406Z,100.00
2022-09-20T23:28:36.881Z,100.00
2022-09-20T23:31:06.833Z,100.00
2022-09-20T23:33:34.988Z,100.00
2022-09-20T23:36:08.235Z,100.00
2022-09-20T23:38:36.370Z,100.00
2022-09-20T23:41:05.056Z,100.00
2022-09-20T23:43:33.098Z,100.00
2022-09-20T23:46:01.117Z,100.00
2022-09-20T23:48:29.394Z,100.00
2022-09-20T23:50:57.579Z,100.00
2022-09-20T23:53:26.556Z,100.00
2022-09-20T23:55:54.212Z,100.00
2022-09-20T23:58:21.890Z,100.00
